Latest Weather Observations for Lord Howe Island Windy Point

IDN60801

Issued at 2:22 am EST Friday 21 September 2018 (issued every 10 minutes, with the page automatically refreshed every 10 minutes)

About weather observations | Map of weather stations | Latest weather observations for NSW | Other Formats
Station Details ID: 200715 Name: LORD HOWE ISLAND WINDY POINT Lat: -31.54 Lon: 159.07 Height: 4.0 m
Data from the previous 72 hours. | See also: Recent months for locations in New South Wales
Date/Time
EST
Temp
°C
App
Temp
°C
Dew
Point
°C
Rel
Hum
%
Delta-T
°C
Wind Press
QNH
hPa
Press
MSL
hPa
Rain since
9am
mm
Dir  Spd
km/h
Gust
km/h
Spd
kts
Gust
kts
21/02:17am - - - - - S 44 65 24 35 - - -
21/02:15am - - - - - S 48 67 26 36 - - -
21/02:04am - - - - - S 41 70 22 38 - - -
21/02:02am - - - - - S 37 59 20 32 - - -
21/02:00am - - - - - S 35 50 19 27 - - -
21/01:30am - - - - - S 37 56 20 30 - - -
21/01:14am - - - - - SSE 33 50 18 27 - - -
21/01:00am - - - - - S 50 65 27 35 - - -
21/12:46am - - - - - S 37 54 20 29 - - -
21/12:31am - - - - - SE 28 46 15 25 - - -
21/12:30am - - - - - SE 28 43 15 23 - - -
21/12:00am - - - - - SE 33 54 18 29 - - -
 
Date/Time
EST
Temp
°C
App
Temp
°C
Dew
Point
°C
Rel
Hum
%
Delta-T
°C
Wind Press
QNH
hPa
Press
MSL
hPa
Rain since
9am
mm
Dir  Spd
km/h
Gust
km/h
Spd
kts
Gust
kts
20/11:30pm - - - - - SSE 33 57 18 31 - - -
20/11:00pm - - - - - SSE 39 57 21 31 - - -
20/10:53pm - - - - - SSE 33 57 18 31 - - -
20/10:49pm - - - - - SSE 35 52 19 28 - - -
20/10:34pm - - - - - S 37 56 20 30 - - -
20/10:30pm - - - - - SSE 35 46 19 25 - - -
20/10:00pm - - - - - S 39 48 21 26 - - -
20/09:30pm - - - - - S 37 57 20 31 - - -
20/09:08pm - - - - - SSE 28 46 15 25 - - -
20/09:00pm - - - - - SSE 33 43 18 23 - - -
20/08:30pm - - - - - S 35 46 19 25 - - -
20/08:00pm - - - - - S 43 54 23 29 - - -
20/07:46pm - - - - - S 33 52 18 28 - - -
20/07:30pm - - - - - SSE 35 46 19 25 - - -
20/07:00pm - - - - - SSE 37 65 20 35 - - -
20/06:46pm - - - - - S 37 59 20 32 - - -
20/06:30pm - - - - - S 39 50 21 27 - - -
20/06:00pm - - - - - SSE 35 54 19 29 - - -
20/05:30pm - - - - - SSE 35 56 19 30 - - -
20/05:03pm - - - - - SSE 28 46 15 25 - - -
20/05:00pm - - - - - SSE 24 46 13 25 - - -
20/04:47pm - - - - - S 33 50 18 27 - - -
20/04:30pm - - - - - SSW 43 54 23 29 - - -
20/04:00pm - - - - - S 32 44 17 24 - - -
20/03:30pm - - - - - W 22 28 12 15 - - -
20/03:00pm - - - - - NW 20 26 11 14 - - -
20/02:30pm - - - - - NW 20 26 11 14 - - -
20/02:00pm - - - - - NW 22 30 12 16 - - -
20/01:30pm - - - - - NW 19 28 10 15 - - -
20/01:00pm - - - - - NW 11 20 6 11 - - -
20/12:30pm - - - - - NNE 17 24 9 13 - - -
20/12:00pm - - - - - NW 9 20 5 11 - - -
20/11:30am - - - - - NNE 9 17 5 9 - - -
20/11:00am - - - - - NNE 17 33 9 18 - - -
20/10:30am - - - - - NW 17 39 9 21 - - -
20/10:00am - - - - - NW 19 30 10 16 - - -
20/09:30am - - - - - NW 22 35 12 19 - - -
20/09:00am - - - - - NE 15 30 8 16 - - -
20/08:30am - - - - - NW 24 37 13 20 - - -
20/08:00am - - - - - NW 28 43 15 23 - - -
20/07:30am - - - - - NW 28 35 15 19 - - -
20/07:00am - - - - - NW 35 43 19 23 - - -
20/06:30am - - - - - NW 24 35 13 19 - - -
20/06:00am - - - - - NW 28 39 15 21 - - -
20/05:30am - - - - - NW 32 39 17 21 - - -
20/05:00am - - - - - NW 24 43 13 23 - - -
20/04:30am - - - - - NW 19 32 10 17 - - -
20/04:00am - - - - - NW 17 28 9 15 - - -
20/03:30am - - - - - NW 20 30 11 16 - - -
20/03:00am - - - - - NW 24 37 13 20 - - -
20/02:30am - - - - - NW 24 35 13 19 - - -
20/02:00am - - - - - NW 28 33 15 18 - - -
20/01:30am - - - - - NW 20 33 11 18 - - -
20/01:00am - - - - - NNW 22 44 12 24 - - -
20/12:30am - - - - - NW 22 44 12 24 - - -
20/12:00am - - - - - NW 19 30 10 16 - - -
 
Date/Time
EST
Temp
°C
App
Temp
°C
Dew
Point
°C
Rel
Hum
%
Delta-T
°C
Wind Press
QNH
hPa
Press
MSL
hPa
Rain since
9am
mm
Dir  Spd
km/h
Gust
km/h
Spd
kts
Gust
kts
19/11:30pm - - - - - NW 20 39 11 21 - - -
19/11:00pm - - - - - NW 20 39 11 21 - - -
19/10:30pm - - - - - NW 17 32 9 17 - - -
19/10:00pm - - - - - NW 15 26 8 14 - - -
19/09:30pm - - - - - NW 13 26 7 14 - - -
19/09:00pm - - - - - NW 11 24 6 13 - - -
19/08:30pm - - - - - NW 15 26 8 14 - - -
19/08:00pm - - - - - NW 17 30 9 16 - - -
19/07:30pm - - - - - NW 17 28 9 15 - - -
19/07:00pm - - - - - NW 15 30 8 16 - - -
19/06:30pm - - - - - NW 17 28 9 15 - - -
19/06:00pm - - - - - WNW 11 20 6 11 - - -
19/05:30pm - - - - - WNW 9 19 5 10 - - -
19/05:00pm - - - - - NW 9 15 5 8 - - -
19/04:30pm - - - - - NNW 9 15 5 8 - - -
19/04:00pm - - - - - NW 11 20 6 11 - - -
19/03:30pm - - - - - NW 11 28 6 15 - - -
19/03:00pm - - - - - N 13 28 7 15 - - -
19/02:30pm - - - - - N 13 30 7 16 - - -
19/02:00pm - - - - - N 15 26 8 14 - - -
19/01:30pm - - - - - NNW 13 30 7 16 - - -
19/01:00pm - - - - - NW 15 22 8 12 - - -
19/12:30pm - - - - - NW 19 30 10 16 - - -
19/12:00pm - - - - - NW 17 30 9 16 - - -
19/11:30am - - - - - NW 15 24 8 13 - - -
19/11:00am - - - - - NW 15 24 8 13 - - -
19/10:30am - - - - - NW 13 24 7 13 - - -
19/10:00am - - - - - NE 11 20 6 11 - - -
19/09:30am - - - - - NNW 11 20 6 11 - - -
19/09:00am - - - - - NW 13 22 7 12 - - -
19/08:30am - - - - - NW 11 20 6 11 - - -
19/08:00am - - - - - NW 9 17 5 9 - - -
19/07:30am - - - - - NW 7 22 4 12 - - -
19/07:00am - - - - - NNW 9 15 5 8 - - -
19/06:30am - - - - - N 7 15 4 8 - - -
19/06:00am - - - - - NW 11 17 6 9 - - -
19/05:30am - - - - - N 9 15 5 8 - - -
19/05:00am - - - - - NE 11 19 6 10 - - -
19/04:30am - - - - - NNE 9 15 5 8 - - -
19/04:00am - - - - - NNE 11 17 6 9 - - -
19/03:30am - - - - - NNE 9 17 5 9 - - -
19/03:00am - - - - - N 9 15 5 8 - - -
19/02:30am - - - - - NW 6 11 3 6 - - -
19/02:00am - - - - - N 6 9 3 5 - - -
19/01:30am - - - - - N 9 19 5 10 - - -
19/01:00am - - - - - NW 7 11 4 6 - - -
19/12:30am - - - - - N 15 26 8 14 - - -
19/12:00am - - - - - NNE 9 13 5 7 - - -
 
Date/Time
EST
Temp
°C
App
Temp
°C
Dew
Point
°C
Rel
Hum
%
Delta-T
°C
Wind Press
QNH
hPa
Press
MSL
hPa
Rain since
9am
mm
Dir  Spd
km/h
Gust
km/h
Spd
kts
Gust
kts
18/11:30pm - - - - - NNE 17 22 9 12 - - -
18/11:00pm - - - - - ENE 13 20 7 11 - - -
18/10:30pm - - - - - ENE 17 22 9 12 - - -
18/10:00pm - - - - - ENE 13 24 7 13 - - -
18/09:30pm - - - - - NE 11 15 6 8 - - -
18/09:00pm - - - - - ENE 19 28 10 15 - - -
18/08:30pm - - - - - ENE 19 28 10 15 - - -
18/08:00pm - - - - - ENE 19 24 10 13 - - -
18/07:30pm - - - - - ENE 11 15 6 8 - - -
18/07:00pm - - - - - NE 9 15 5 8 - - -
18/06:30pm - - - - - E 13 20 7 11 - - -
18/06:00pm - - - - - E 13 22 7 12 - - -
18/05:30pm - - - - - ESE 7 13 4 7 - - -
18/05:00pm - - - - - E 13 19 7 10 - - -
18/04:30pm - - - - - ESE 11 15 6 8 - - -
18/04:00pm - - - - - ESE 13 17 7 9 - - -
18/03:30pm - - - - - ESE 13 19 7 10 - - -
18/03:00pm - - - - - E 13 20 7 11 - - -
18/02:30pm - - - - - E 15 19 8 10 - - -
18/02:00pm - - - - - E 15 20 8 11 - - -
18/01:30pm - - - - - E 17 20 9 11 - - -
18/01:00pm - - - - - E 17 22 9 12 - - -
18/12:30pm - - - - - E 17 24 9 13 - - -
18/12:00pm - - - - - E 17 24 9 13 - - -
18/11:30am - - - - - E 13 20 7 11 - - -
18/11:00am - - - - - E 17 20 9 11 - - -
18/10:30am - - - - - E 17 20 9 11 - - -
18/10:00am - - - - - ESE 17 20 9 11 - - -
18/09:30am - - - - - ESE 17 20 9 11 - - -
18/09:00am - - - - - E 19 24 10 13 - - -
18/08:30am - - - - - E 20 24 11 13 - - -
18/08:00am - - - - - E 19 30 10 16 - - -
18/07:30am - - - - - E 22 30 12 16 - - -
18/07:00am - - - - - ESE 20 28 11 15 - - -
18/06:30am - - - - - SE 9 17 5 9 - - -
18/06:00am - - - - - ESE 9 15 5 8 - - -
18/05:30am - - - - - SE 11 15 6 8 - - -
18/05:00am - - - - - SSE 15 22 8 12 - - -
18/04:30am - - - - - SE 13 19 7 10 - - -
18/04:00am - - - - - SSE 13 24 7 13 - - -
18/03:30am - - - - - SE 13 19 7 10 - - -
18/03:00am - - - - - SE 15 24 8 13 - - -
18/02:30am - - - - - SE 11 19 6 10 - - -

Other Formats:

Comma delimited format used in spreadsheet applications
http://www.bom.gov.au/fwo/IDN60801/IDN60801.95995.axf

JavaScript Object Notation format (JSON) in row-major order
http://www.bom.gov.au/fwo/IDN60801/IDN60801.95995.json